Time;durP1;ratioP1;P1;durP2;ratioP2;P2;SDS_P1;SDS_P2;PMS_P1;PMS_P2;Temp;Humidity;BMP_temperature;BMP_pressure;BME280_temperature;BME280_humidity;BME280_pressure;Samples;Min_cycle;Max_cycle;Signal;HPM_P1;HPM_P2
2023/06/26 00:00:47;;;;;;;8.00;7.30;;;;;;;22.76;94.37;101085.19;5007813;28;20053;-61
2023/06/26 00:03:14;;;;;;;8.10;7.40;;;;;;;22.78;93.71;101091.31;5008050;28;20018;-61
2023/06/26 00:05:40;;;;;;;7.38;6.75;;;;;;;22.82;93.61;101093.91;5007912;28;20052;-61
2023/06/26 00:08:06;;;;;;;7.30;6.70;;;;;;;22.81;98.83;101094.81;4989135;28;20021;-60
2023/06/26 00:10:31;;;;;;;7.75;7.15;;;;;;;22.73;100.00;101090.50;5007586;28;20444;-59
2023/06/26 00:12:56;;;;;;;7.15;6.47;;;;;;;22.69;98.91;101086.16;5007738;28;20488;-62
2023/06/26 00:15:22;;;;;;;7.13;6.43;;;;;;;22.69;97.45;101086.16;5007389;28;20030;-61
2023/06/26 00:17:47;;;;;;;6.95;6.35;;;;;;;22.67;97.51;101082.66;5007536;28;20068;-60
2023/06/26 00:20:16;;;;;;;7.28;6.72;;;;;;;22.66;97.81;101080.94;5007823;28;20037;-61
2023/06/26 00:22:41;;;;;;;6.35;5.75;;;;;;;22.65;97.03;101079.16;5007207;28;20670;-61
2023/06/26 00:25:07;;;;;;;6.95;6.35;;;;;;;22.66;97.29;101080.94;5007417;28;20030;-62
2023/06/26 00:27:33;;;;;;;6.72;6.13;;;;;;;22.66;96.91;101086.22;5007646;28;20025;-61
2023/06/26 00:29:58;;;;;;;6.70;6.03;;;;;;;22.65;95.76;101079.16;5007396;28;20607;-61
2023/06/26 00:32:23;;;;;;;7.00;6.40;;;;;;;22.64;93.23;101074.81;5007994;28;20048;-62
2023/06/26 00:34:48;;;;;;;7.13;6.45;;;;;;;22.66;90.99;101078.28;5007389;28;20804;-61
2023/06/26 00:37:14;;;;;;;6.15;5.65;;;;;;;22.68;91.58;101087.06;5007072;28;20378;-61
2023/06/26 00:39:40;;;;;;;6.43;5.80;;;;;;;22.70;91.69;101082.66;5007121;28;20034;-61
2023/06/26 00:42:06;;;;;;;6.80;6.20;;;;;;;22.67;92.59;101078.28;5007106;28;20386;-61
2023/06/26 00:44:31;;;;;;;6.55;5.70;;;;;;;22.67;91.32;101077.38;5007865;28;20022;-62
2023/06/26 00:46:57;;;;;;;7.80;6.00;;;;;;;22.64;92.41;101073.03;5007141;28;20033;-61
2023/06/26 00:49:23;;;;;;;6.55;5.95;;;;;;;22.63;92.07;101086.28;5007423;28;20029;-62
2023/06/26 00:51:48;;;;;;;6.75;6.15;;;;;;;22.61;91.19;101088.03;5007705;28;20034;-61
2023/06/26 00:54:19;;;;;;;7.85;6.53;;;;;;;22.62;90.94;101089.75;5007023;28;20018;-62
2023/06/26 00:56:45;;;;;;;6.85;6.25;;;;;;;22.62;89.95;101089.75;5006968;28;20022;-62
2023/06/26 00:59:10;;;;;;;6.80;6.10;;;;;;;22.60;90.47;101097.72;5007152;28;20108;-61
2023/06/26 01:01:36;;;;;;;7.13;6.53;;;;;;;22.60;89.38;101086.25;5006531;28;20022;-61
2023/06/26 01:04:02;;;;;;;6.93;6.38;;;;;;;22.60;89.61;101086.25;5007159;28;20516;-61
2023/06/26 01:06:31;;;;;;;7.22;6.57;;;;;;;22.57;89.88;101086.31;5006804;28;20030;-61
2023/06/26 01:08:59;;;;;;;7.07;6.47;;;;;;;22.54;89.40;101095.16;5007388;28;20328;-61
2023/06/26 01:11:24;;;;;;;8.30;7.55;;;;;;;22.52;89.00;101099.59;5007474;28;20031;-60
2023/06/26 01:13:51;;;;;;;7.93;7.28;;;;;;;22.49;89.45;101094.34;5007116;28;20563;-61
2023/06/26 01:16:19;;;;;;;7.53;6.85;;;;;;;22.47;88.62;101096.16;5007043;28;20033;-61
2023/06/26 01:18:45;;;;;;;7.72;7.03;;;;;;;22.48;88.00;101103.16;5006983;28;20022;-61
2023/06/26 01:21:11;;;;;;;6.97;6.38;;;;;;;;;;5007150;28;20200;-62
2023/06/26 01:23:47;;;;;;;8.18;6.50;;;;;;;22.51;87.93;101113.66;5006748;28;20355;-61
2023/06/26 01:26:23;;;;;;;7.47;6.88;;;;;;;22.48;87.35;101109.31;5007017;28;20053;-61
2023/06/26 01:28:53;;;;;;;7.95;7.15;;;;;;;22.46;86.37;101111.09;5009029;28;20037;-62
2023/06/26 01:31:19;;;;;;;7.22;6.53;;;;;;;22.45;86.85;101114.63;5010918;28;20449;-61
2023/06/26 01:33:46;;;;;;;11.23;6.63;;;;;;;22.41;86.53;101113.78;4997625;28;20022;-60
2023/06/26 01:36:12;;;;;;;7.43;6.65;;;;;;;22.39;86.57;101114.72;5010436;28;20049;-61
2023/06/26 01:38:37;;;;;;;8.23;6.25;;;;;;;22.37;87.35;101121.78;5010658;28;20088;-61
2023/06/26 01:41:04;;;;;;;6.65;6.10;;;;;;;22.36;87.46;101117.41;5009681;28;20022;-61
2023/06/26 01:43:48;;;;;;;7.38;5.78;;;;;;;22.30;87.55;101118.34;5010418;28;20029;-61
2023/06/26 01:46:36;;;;;;;7.88;6.63;;;;;;;22.29;87.17;101125.38;5010344;28;20028;-62
2023/06/26 01:49:06;;;;;;;7.15;6.45;;;;;;;22.28;86.88;101130.69;5009796;28;20473;-61
2023/06/26 01:51:42;;;;;;;7.10;6.10;;;;;;;22.24;87.30;101132.50;5009843;28;20042;-61
2023/06/26 01:54:16;;;;;;;7.65;6.40;;;;;;;22.19;87.43;101139.59;4998990;28;20103;-61
2023/06/26 01:56:44;;;;;;;6.55;5.95;;;;;;;22.16;87.72;101144.91;5009672;28;20387;-61
2023/06/26 01:59:13;;;;;;;6.82;6.15;;;;;;;22.13;87.66;101147.56;5010013;28;20124;-61
2023/06/26 02:01:39;;;;;;;6.75;6.10;;;;;;;22.10;87.60;101155.53;5010138;28;20029;-61
2023/06/26 02:04:04;;;;;;;7.53;6.82;;;;;;;22.05;87.77;101147.69;5009613;28;20103;-62
2023/06/26 02:06:30;;;;;;;6.50;5.90;;;;;;;22.04;88.29;101156.47;5009552;28;20026;-62
2023/06/26 02:08:56;;;;;;;6.40;5.80;;;;;;;21.99;88.32;101153.00;5010008;28;20112;-60
2023/06/26 02:11:21;;;;;;;7.13;6.43;;;;;;;21.93;88.82;101156.56;5010080;28;20038;-62
2023/06/26 02:13:47;;;;;;;6.50;5.88;;;;;;;21.89;89.55;101152.25;5009311;28;20370;-61
2023/06/26 02:16:12;;;;;;;7.07;6.00;;;;;;;21.82;88.21;101152.28;5009920;28;20466;-61
2023/06/26 02:18:37;;;;;;;6.10;5.50;;;;;;;21.78;89.11;101150.56;5009352;28;20030;-61
2023/06/26 02:21:03;;;;;;;8.77;5.63;;;;;;;21.73;88.46;101149.72;5009982;28;20025;-61
2023/06/26 02:23:29;;;;;;;5.82;5.05;;;;;;;21.69;87.52;101143.63;5009333;28;20084;-61
2023/06/26 02:25:54;;;;;;;4.88;4.35;;;;;;;21.66;87.19;101145.41;5009108;28;20077;-62
2023/06/26 02:28:19;;;;;;;6.03;5.13;;;;;;;21.62;87.95;101143.69;5009700;28;20030;-61
2023/06/26 02:30:45;;;;;;;5.45;4.75;;;;;;;21.59;87.55;101144.56;5009839;28;20493;-61
2023/06/26 02:33:10;;;;;;;6.78;4.30;;;;;;;21.51;88.52;101152.56;5009209;28;20087;-60
2023/06/26 02:35:35;;;;;;;5.30;4.72;;;;;;;21.45;89.01;101147.34;5009152;28;20040;-61
2023/06/26 02:38:00;;;;;;;7.00;4.72;;;;;;;21.44;88.04;101156.16;5007514;28;20441;-61
2023/06/26 02:40:26;;;;;;;5.50;4.20;;;;;;;21.37;88.04;101151.81;5009602;28;20049;-62
2023/06/26 02:42:51;;;;;;;6.43;5.05;;;;;;;21.33;89.19;101154.47;5009946;28;20057;-61
2023/06/26 02:45:16;;;;;;;6.65;4.78;;;;;;;21.30;89.06;101159.75;5008344;28;20036;-61
2023/06/26 02:47:42;;;;;;;5.57;4.40;;;;;;;21.25;88.65;101158.91;5009443;28;20076;-61
2023/06/26 02:50:07;;;;;;;7.45;4.57;;;;;;;21.20;88.21;101166.88;5009041;28;20022;-60
2023/06/26 02:52:33;;;;;;;4.50;3.85;;;;;;;21.18;88.39;101163.38;5009145;28;20088;-62
2023/06/26 02:54:58;;;;;;;6.97;4.32;;;;;;;21.13;89.46;101174.81;5009154;28;20033;-61
2023/06/26 02:57:23;;;;;;;6.75;4.20;;;;;;;21.06;89.12;101180.16;5008179;28;20076;-61
2023/06/26 02:59:48;;;;;;;5.13;4.25;;;;;;;21.02;89.01;101191.56;5008872;28;20421;-61
2023/06/26 03:02:14;;;;;;;5.35;3.92;;;;;;;20.97;89.63;101194.25;5008379;28;20104;-61
2023/06/26 03:04:39;;;;;;;6.00;4.63;;;;;;;20.93;90.08;101194.22;5008551;28;20172;-61
2023/06/26 03:07:04;;;;;;;6.72;4.00;;;;;;;20.88;90.14;101194.25;5007619;28;20499;-60
2023/06/26 03:09:30;;;;;;;7.22;4.13;;;;;;;20.86;89.90;101202.19;5009132;28;20032;-61
2023/06/26 03:11:55;;;;;;;5.38;4.15;;;;;;;20.86;89.79;101196.91;5007767;28;20040;-60
2023/06/26 03:14:21;;;;;;;6.47;4.10;;;;;;;20.82;89.17;101200.44;5006903;28;20053;-61
2023/06/26 03:16:46;;;;;;;6.20;3.60;;;;;;;20.79;89.24;101197.81;5006491;28;20022;-61
2023/06/26 03:19:11;;;;;;;5.47;4.25;;;;;;;20.76;89.90;101198.69;5006641;28;20010;-61
2023/06/26 03:21:36;;;;;;;6.43;3.83;;;;;;;20.72;90.71;101198.72;5006730;28;20504;-61
2023/06/26 03:24:02;;;;;;;7.07;4.20;;;;;;;20.72;90.73;101193.47;5006664;28;20510;-61
2023/06/26 03:26:28;;;;;;;6.78;4.28;;;;;;;20.71;91.36;101199.59;5005197;28;20037;-61
2023/06/26 03:28:54;;;;;;;6.68;4.25;;;;;;;20.68;92.53;101189.09;5007048;28;20025;-61
2023/06/26 03:31:20;;;;;;;5.07;4.10;;;;;;;20.63;92.41;101192.63;5005960;28;20529;-61
2023/06/26 03:33:45;;;;;;;5.40;3.80;;;;;;;20.59;93.80;101196.16;5006881;28;20148;-62
2023/06/26 03:36:10;;;;;;;6.28;4.40;;;;;;;20.59;94.04;101193.53;5007764;28;20117;-60
2023/06/26 03:38:36;;;;;;;9.02;4.63;;;;;;;20.60;94.78;101194.38;5008090;28;20540;-61
2023/06/26 03:41:02;;;;;;;6.75;4.03;;;;;;;20.53;95.55;101185.66;5008478;28;20025;-61
2023/06/26 03:43:27;;;;;;;7.97;4.18;;;;;;;20.51;96.55;101190.03;5008448;28;20029;-61
2023/06/26 03:45:52;;;;;;;6.13;4.40;;;;;;;20.44;97.62;101190.94;5008667;28;20018;-60
2023/06/26 03:48:17;;;;;;;4.70;3.85;;;;;;;20.36;98.47;101189.22;5007289;28;20025;-61
2023/06/26 03:50:43;;;;;;;9.52;4.78;;;;;;;20.33;99.42;101183.97;5007618;28;20200;-60
2023/06/26 03:53:09;;;;;;;5.43;3.67;;;;;;;20.33;99.47;101191.00;5007805;28;20033;-61
2023/06/26 03:55:34;;;;;;;7.43;4.50;;;;;;;20.25;100.00;101199.78;5008503;28;20703;-61
2023/06/26 03:57:59;;;;;;;7.88;4.47;;;;;;;20.20;100.00;101204.16;5007566;28;20042;-61
2023/06/26 04:00:24;;;;;;;7.75;4.22;;;;;;;20.18;100.00;101212.94;5007247;28;20026;-61
2023/06/26 04:02:51;;;;;;;6.47;4.55;;;;;;;20.16;100.00;101210.34;5008072;28;20033;-59
2023/06/26 04:05:17;;;;;;;5.22;3.70;;;;;;;20.16;100.00;101210.34;5008182;28;20125;-61
2023/06/26 04:07:42;;;;;;;6.20;4.60;;;;;;;20.14;100.00;101205.09;5007524;28;20118;-61
2023/06/26 04:10:09;;;;;;;7.90;4.47;;;;;;;20.14;100.00;101218.22;5008202;28;20483;-60
2023/06/26 04:12:34;;;;;;;8.13;4.57;;;;;;;20.14;100.00;101234.00;5007809;28;20030;-61
2023/06/26 04:14:59;;;;;;;9.23;4.82;;;;;;;20.11;100.00;101226.09;5008286;28;20038;-60
2023/06/26 04:17:24;;;;;;;9.85;4.68;;;;;;;20.11;100.00;101231.38;5007882;28;20022;-61
2023/06/26 04:19:50;;;;;;;8.68;4.70;;;;;;;20.11;100.00;101241.03;5007902;28;20030;-61
2023/06/26 04:22:15;;;;;;;7.35;5.10;;;;;;;20.06;100.00;101241.03;5007769;28;20381;-61
2023/06/26 04:24:40;;;;;;;9.88;4.90;;;;;;;20.03;100.00;101243.63;5007648;28;20026;-61
2023/06/26 04:27:06;;;;;;;10.23;5.10;;;;;;;20.03;100.00;101241.00;5007954;28;20029;-61
2023/06/26 04:29:31;;;;;;;12.15;5.80;;;;;;;20.06;100.00;101243.66;5007536;28;20049;-60
2023/06/26 04:31:59;;;;;;;9.07;5.28;;;;;;;20.06;100.00;101243.66;5007626;28;20072;-61
2023/06/26 04:34:25;;;;;;;7.75;5.32;;;;;;;20.06;100.00;101241.03;5007154;28;20037;-60
2023/06/26 04:36:51;;;;;;;8.68;4.93;;;;;;;20.07;100.00;101242.78;5007373;28;20489;-61
2023/06/26 04:39:16;;;;;;;9.05;5.00;;;;;;;20.08;100.00;101249.78;5007777;28;20087;-61
2023/06/26 04:41:42;;;;;;;9.13;5.38;;;;;;;20.10;100.00;101253.28;5006982;28;20030;-60
2023/06/26 04:44:07;;;;;;;11.48;6.05;;;;;;;20.12;100.00;101251.53;5007777;28;20026;-60
2023/06/26 04:46:32;;;;;;;10.73;5.55;;;;;;;20.12;100.00;101259.44;5007523;28;20030;-60
2023/06/26 04:48:58;;;;;;;10.50;4.97;;;;;;;20.14;100.00;101264.69;5006932;28;20382;-61
2023/06/26 04:51:26;;;;;;;8.80;4.90;;;;;;;20.14;100.00;101260.31;5007844;28;20092;-62
2023/06/26 04:53:52;;;;;;;12.02;5.90;;;;;;;20.14;100.00;101265.56;5007544;28;20105;-61
2023/06/26 04:56:17;;;;;;;9.45;5.43;;;;;;;20.13;100.00;101258.53;5007240;28;20121;-61
2023/06/26 04:58:42;;;;;;;13.85;5.57;;;;;;;20.18;100.00;101270.81;5007194;28;20048;-61
2023/06/26 05:01:10;;;;;;;13.23;5.75;;;;;;;20.16;100.00;101262.94;5007335;28;20526;-61
2023/06/26 05:03:36;;;;;;;12.13;5.35;;;;;;;20.18;100.00;101276.09;4997897;28;20044;-61
2023/06/26 05:06:02;;;;;;;10.43;4.82;;;;;;;20.21;100.00;101273.44;5011473;28;20026;-61
2023/06/26 05:08:27;;;;;;;9.80;5.20;;;;;;;20.19;100.00;101272.56;5011263;28;20022;-61
2023/06/26 05:10:53;;;;;;;11.48;5.43;;;;;;;20.19;100.00;101272.56;5010938;28;20025;-60
2023/06/26 05:13:19;;;;;;;10.98;6.13;;;;;;;20.15;100.00;101283.09;5011779;28;20524;-61
2023/06/26 05:15:45;;;;;;;10.27;5.57;;;;;;;20.14;100.00;101289.25;5010615;28;20041;-60
2023/06/26 05:18:11;;;;;;;15.65;5.28;;;;;;;20.19;100.00;101293.59;5011491;28;20022;-61
2023/06/26 05:20:37;;;;;;;11.70;5.20;;;;;;;20.25;100.00;101297.13;5010754;28;20548;-61
2023/06/26 05:23:03;;;;;;;12.55;5.50;;;;;;;20.28;100.00;101299.75;5010195;28;20057;-61
2023/06/26 05:25:29;;;;;;;11.65;5.30;;;;;;;20.32;100.00;101291.84;5010604;28;20491;-59
2023/06/26 05:27:56;;;;;;;13.55;5.20;;;;;;;20.34;100.00;101298.00;5010604;28;20036;-61
2023/06/26 05:30:25;;;;;;;14.13;5.80;;;;;;;20.36;100.00;101302.34;5010561;28;20026;-61
2023/06/26 05:32:51;;;;;;;8.35;4.72;;;;;;;20.38;100.00;101299.75;5010857;28;20397;-61
2023/06/26 05:35:17;;;;;;;11.48;4.95;;;;;;;20.40;100.00;101317.28;4999036;28;20084;-61
2023/06/26 05:37:42;;;;;;;15.45;5.13;;;;;;;20.43;100.00;101305.00;5010713;28;20212;-61
2023/06/26 05:40:08;;;;;;;11.13;5.65;;;;;;;20.48;100.00;101305.84;5010799;28;20104;-61
2023/06/26 05:42:34;;;;;;;13.00;5.20;;;;;;;20.53;100.00;101309.34;5010545;28;20092;-61
2023/06/26 05:44:59;;;;;;;11.95;4.95;;;;;;;20.57;100.00;101315.47;5010065;28;20022;-61
2023/06/26 05:47:25;;;;;;;13.00;5.43;;;;;;;20.60;100.00;101326.88;5010346;28;20493;-59
2023/06/26 05:49:50;;;;;;;11.95;5.00;;;;;;;20.59;100.00;101313.72;5010449;28;20021;-61
2023/06/26 05:52:16;;;;;;;11.32;4.88;;;;;;;20.58;100.00;101326.00;5010579;28;20049;-62
2023/06/26 05:54:41;;;;;;;13.27;4.90;;;;;;;20.62;100.00;101325.13;5009600;28;20034;-60
2023/06/26 05:57:07;;;;;;;12.85;4.47;;;;;;;20.64;100.00;101336.53;5010000;28;20524;-61
2023/06/26 05:59:32;;;;;;;10.35;4.10;;;;;;;20.64;100.00;101333.91;5010008;28;20041;-61
2023/06/26 06:01:58;;;;;;;9.40;4.32;;;;;;;20.68;100.00;101331.25;5010268;28;20053;-61
2023/06/26 06:04:23;;;;;;;17.38;4.93;;;;;;;20.73;100.00;101343.53;5009411;28;20022;-60
2023/06/26 06:06:48;;;;;;;10.95;4.45;;;;;;;20.82;100.00;101336.47;5009810;28;20064;-61
2023/06/26 06:09:14;;;;;;;13.15;4.57;;;;;;;20.92;100.00;101348.72;5009521;28;20359;-61
2023/06/26 06:11:39;;;;;;;8.18;4.25;;;;;;;21.00;100.00;101351.38;5010144;28;20034;-60
2023/06/26 06:14:04;;;;;;;11.32;4.47;;;;;;;21.03;100.00;101359.25;5008641;28;20389;-60
2023/06/26 06:16:30;;;;;;;10.15;3.80;;;;;;;21.07;100.00;101358.38;5009883;28;20041;-59
2023/06/26 06:18:55;;;;;;;13.27;4.00;;;;;;;21.18;99.26;101368.00;5008230;28;20028;-61
2023/06/26 06:21:21;;;;;;;7.63;3.22;;;;;;;21.31;99.09;101367.06;5008280;28;20108;-60
2023/06/26 06:23:46;;;;;;;8.93;3.58;;;;;;;21.41;97.37;101364.38;5007543;28;20021;-60
2023/06/26 06:26:12;;;;;;;7.50;3.35;;;;;;;21.51;96.61;101373.13;5007952;28;20105;-61
2023/06/26 06:28:38;;;;;;;9.02;3.78;;;;;;;21.63;96.97;101382.72;5008156;28;20054;-61
2023/06/26 06:31:03;;;;;;;9.02;3.60;;;;;;;21.68;93.82;101378.28;5008214;28;20029;-61
2023/06/26 06:33:29;;;;;;;7.93;3.00;;;;;;;21.71;92.47;101378.28;5009191;28;20030;-60
2023/06/26 06:35:54;;;;;;;8.65;3.13;;;;;;;21.72;92.52;101377.38;5009690;28;20032;-61
2023/06/26 06:38:19;;;;;;;8.32;3.17;;;;;;;21.72;90.52;101385.28;5008783;28;20044;-60
2023/06/26 06:40:44;;;;;;;11.77;3.10;;;;;;;21.77;90.34;101372.94;5009528;28;20129;-60
2023/06/26 06:43:10;;;;;;;7.15;3.25;;;;;;;21.86;90.40;101379.97;5008839;28;20477;-60
2023/06/26 06:45:37;;;;;;;8.18;3.05;;;;;;;21.94;89.64;101391.34;5009276;28;20026;-60
2023/06/26 06:48:02;;;;;;;7.80;2.95;;;;;;;22.02;89.29;101390.41;5009020;28;20034;-61
2023/06/26 06:50:28;;;;;;;7.65;2.97;;;;;;;22.12;88.95;101407.03;5008380;28;20041;-60
2023/06/26 06:52:53;;;;;;;5.25;2.70;;;;;;;22.24;88.76;101406.06;5009313;28;20292;-61
2023/06/26 06:55:18;;;;;;;7.13;2.95;;;;;;;22.30;85.89;101401.63;5009306;28;20062;-61
2023/06/26 06:57:44;;;;;;;7.13;2.72;;;;;;;22.40;86.99;101404.16;5009341;28;20026;-60
2023/06/26 07:00:14;;;;;;;7.35;2.95;;;;;;;22.45;85.56;101405.00;5008846;28;20046;-60
2023/06/26 07:02:42;;;;;;;6.00;2.70;;;;;;;22.54;87.32;101414.63;5007539;28;20030;-60
2023/06/26 07:05:09;;;;;;;6.13;2.40;;;;;;;22.51;85.04;101415.53;5007140;28;20026;-60
2023/06/26 07:07:35;;;;;;;6.40;2.67;;;;;;;22.51;84.89;101426.09;5007489;28;20520;-61
2023/06/26 07:10:03;;;;;;;7.63;2.90;;;;;;;22.53;85.38;101428.72;4994475;28;20021;-60
2023/06/26 07:12:28;;;;;;;4.00;2.45;;;;;;;22.63;84.15;101429.53;5007491;28;20026;-61
2023/06/26 07:14:55;;;;;;;8.23;2.80;;;;;;;22.67;83.74;101425.97;5007466;28;20420;-60
2023/06/26 07:17:21;;;;;;;4.90;2.95;;;;;;;22.62;83.33;101427.75;5008501;28;20022;-62
2023/06/26 07:19:47;;;;;;;5.97;2.58;;;;;;;22.44;84.11;101429.66;5008875;28;20030;-60
2023/06/26 07:22:12;;;;;;;4.72;2.65;;;;;;;22.43;85.44;101430.56;5009043;28;20057;-60
2023/06/26 07:24:37;;;;;;;7.22;2.72;;;;;;;22.49;86.99;101435.78;5008273;28;20545;-60
2023/06/26 07:27:03;;;;;;;9.52;2.75;;;;;;;22.53;86.46;101445.44;5008136;28;20025;-59
2023/06/26 07:29:28;;;;;;;7.75;3.28;;;;;;;22.53;88.18;101453.34;5008742;28;20072;-61
2023/06/26 07:31:53;;;;;;;4.13;2.80;;;;;;;22.51;85.84;101446.31;5007839;28;20034;-60
2023/06/26 07:34:19;;;;;;;7.07;2.85;;;;;;;22.49;86.66;101458.66;5008354;28;20088;-60
2023/06/26 07:36:44;;;;;;;8.90;3.13;;;;;;;22.46;87.64;101456.03;5008500;28;20378;-61
2023/06/26 07:39:10;;;;;;;6.38;2.72;;;;;;;22.38;87.69;101466.69;5008850;28;20029;-61
2023/06/26 07:41:35;;;;;;;5.28;2.40;;;;;;;22.31;87.43;101471.09;5007727;28;20026;-61
2023/06/26 07:44:00;;;;;;;7.40;2.67;;;;;;;22.19;87.58;101466.81;5008714;28;20021;-60
2023/06/26 07:46:25;;;;;;;5.75;2.47;;;;;;;22.19;87.37;101475.59;5008173;28;20110;-61
2023/06/26 07:48:51;;;;;;;5.07;2.60;;;;;;;22.23;89.70;101472.94;5007399;28;20461;-61
2023/06/26 07:51:16;;;;;;;5.10;2.35;;;;;;;22.22;88.42;101472.06;5008450;28;20029;-61
2023/06/26 07:53:41;;;;;;;4.85;2.83;;;;;;;22.30;87.09;101480.81;5007574;28;20556;-61
2023/06/26 07:56:06;;;;;;;6.13;3.20;;;;;;;22.47;86.49;101481.56;5007806;28;20025;-60
2023/06/26 07:58:32;;;;;;;8.80;4.18;;;;;;;22.63;81.70;101485.84;5007561;28;20042;-60
2023/06/26 08:00:57;;;;;;;5.05;2.95;;;;;;;22.78;81.96;101495.41;5008102;28;20033;-60
2023/06/26 08:03:23;;;;;;;3.67;1.95;;;;;;;22.98;81.47;101494.34;5007176;28;20470;-61
2023/06/26 08:05:48;;;;;;;2.88;2.30;;;;;;;23.21;80.33;101492.34;5007685;28;20036;-60
2023/06/26 08:08:14;;;;;;;3.95;2.15;;;;;;;23.24;79.43;101490.53;5007359;28;20018;-61
2023/06/26 08:10:39;;;;;;;3.47;2.13;;;;;;;23.24;76.94;101489.69;5007875;28;20382;-61
2023/06/26 08:13:04;;;;;;;4.07;1.95;;;;;;;23.14;77.62;101489.78;5008236;28;20047;-61
2023/06/26 08:15:29;;;;;;;5.35;2.03;;;;;;;23.02;78.82;101490.81;5007512;28;20029;-60
2023/06/26 08:17:55;;;;;;;4.15;2.00;;;;;;;22.94;78.76;101497.03;5007297;28;20104;-59
2023/06/26 08:20:20;;;;;;;4.53;1.98;;;;;;;22.83;78.35;101499.78;5007192;28;20017;-60
2023/06/26 08:22:47;;;;;;;3.40;1.98;;;;;;;22.70;79.11;101499.03;5007979;28;20041;-61
2023/06/26 08:25:13;;;;;;;4.32;1.70;;;;;;;22.60;79.93;101508.72;5007353;28;20045;-59
2023/06/26 08:27:38;;;;;;;4.85;1.90;;;;;;;22.47;77.62;101503.56;5007612;28;20065;-59
2023/06/26 08:30:05;;;;;;;5.43;1.48;;;;;;;22.60;77.99;101506.97;5007507;28;20014;-61
2023/06/26 08:32:30;;;;;;;5.55;1.70;;;;;;;22.84;74.73;101510.34;5007602;28;20065;-61
2023/06/26 08:34:55;;;;;;;2.70;1.10;;;;;;;23.13;73.17;101508.31;5007198;28;20583;-60
2023/06/26 08:37:20;;;;;;;3.67;1.40;;;;;;;23.30;72.77;101518.69;5006927;28;20025;-61
2023/06/26 08:39:46;;;;;;;3.40;1.45;;;;;;;23.47;68.92;101505.34;5007256;28;20278;-60
2023/06/26 08:42:11;;;;;;;3.75;1.38;;;;;;;23.68;68.17;101507.72;5007086;28;20027;-60
2023/06/26 08:44:36;;;;;;;5.45;1.17;;;;;;;23.91;64.16;101510.06;5006985;28;20076;-59
2023/06/26 08:47:03;;;;;;;6.43;1.17;;;;;;;24.04;61.89;101517.81;5006828;28;20013;-61
2023/06/26 08:49:41;;;;;;;2.95;1.02;;;;;;;24.21;59.02;101523.78;5007285;28;20034;-60
2023/06/26 08:52:35;;;;;;;4.63;0.90;;;;;;;24.29;59.71;101518.38;5006874;28;20841;-61
2023/06/26 08:55:06;;;;;;;1.55;0.68;;;;;;;24.39;59.87;101521.78;5006923;28;20462;-60
2023/06/26 08:57:32;;;;;;;2.08;0.77;;;;;;;24.46;59.84;101535.78;5006867;28;20104;-61
2023/06/26 08:59:57;;;;;;;5.53;1.63;;;;;;;24.44;57.65;101533.16;5007300;28;20620;-60
2023/06/26 09:02:23;;;;;;;2.92;0.93;;;;;;;24.58;58.27;101537.34;5007592;28;20101;-61
2023/06/26 09:04:50;;;;;;;4.55;1.35;;;;;;;24.68;57.78;101541.59;5006733;28;20026;-61
2023/06/26 09:07:16;;;;;;;2.28;0.90;;;;;;;24.81;59.96;101541.41;5007054;28;20431;-61
2023/06/26 09:09:42;;;;;;;1.75;0.90;;;;;;;24.88;56.47;101551.00;5006636;28;20160;-60
2023/06/26 09:12:08;;;;;;;3.95;1.27;;;;;;;24.99;56.68;101544.69;5007466;28;20030;-61
2023/06/26 09:14:34;;;;;;;1.60;0.93;;;;;;;25.06;55.79;101541.88;4989423;28;20032;-61
2023/06/26 09:17:00;;;;;;;6.90;1.30;;;;;;;25.13;55.57;101542.63;5007132;28;20038;-61
2023/06/26 09:19:26;;;;;;;5.55;1.17;;;;;;;25.08;54.66;101549.81;5006657;28;20025;-62
2023/06/26 09:21:51;;;;;;;8.23;1.98;;;;;;;25.11;54.91;101555.06;5006847;28;20378;-61
2023/06/26 09:24:17;;;;;;;3.38;1.10;;;;;;;25.14;55.35;101555.00;5006850;28;20018;-61
2023/06/26 09:26:42;;;;;;;2.65;1.40;;;;;;;25.13;56.06;101553.25;5007906;28;20235;-61
2023/06/26 09:29:09;;;;;;;1.60;0.90;;;;;;;24.78;53.79;101555.59;5005907;28;20037;-61
2023/06/26 09:31:37;;;;;;;1.85;0.95;;;;;;;24.40;53.84;101557.94;5004562;28;20037;-60
2023/06/26 09:34:03;;;;;;;2.75;1.00;;;;;;;24.32;56.81;101563.34;5007182;28;20030;-61
2023/06/26 09:36:33;;;;;;;2.80;1.30;;;;;;;24.40;56.55;101560.59;5006273;28;20049;-59
2023/06/26 09:39:04;;;;;;;3.05;0.93;;;;;;;24.56;57.42;101573.59;5007288;28;20072;-60
2023/06/26 09:41:30;;;;;;;4.50;1.15;;;;;;;24.77;55.40;101580.31;5005372;28;20025;-59
2023/06/26 09:44:01;;;;;;;2.60;0.80;;;;;;;24.84;54.32;101578.47;5005009;28;20386;-61
2023/06/26 09:46:28;;;;;;;4.50;0.90;;;;;;;24.83;52.64;101587.28;5005203;28;20193;-61
2023/06/26 09:49:01;;;;;;;6.00;1.23;;;;;;;24.81;51.11;101584.66;5005703;28;20042;-60
2023/06/26 09:51:28;;;;;;;4.38;1.00;;;;;;;24.85;52.82;101596.09;5007865;28;20455;-59
2023/06/26 09:53:54;;;;;;;4.57;1.30;;;;;;;25.06;53.34;101594.88;5008421;28;20116;-61
2023/06/26 09:56:19;;;;;;;3.90;1.08;;;;;;;25.21;53.54;101584.03;5008323;28;20037;-61
2023/06/26 09:58:44;;;;;;;3.13;1.00;;;;;;;25.27;54.06;101602.50;5009117;28;20147;-59
2023/06/26 10:01:10;;;;;;;4.88;1.13;;;;;;;25.26;52.06;101591.00;5009617;28;20030;-60
2023/06/26 10:03:36;;;;;;;3.40;0.80;;;;;;;25.34;52.66;101595.31;5012200;28;20022;-61
2023/06/26 10:06:02;;;;;;;6.43;1.00;;;;;;;25.33;49.52;101594.41;5015803;28;20030;-59
2023/06/26 10:08:28;;;;;;;3.15;0.88;;;;;;;25.22;48.28;101588.47;5018441;28;20060;-61
2023/06/26 10:10:55;;;;;;;1.45;0.73;;;;;;;25.28;48.91;101598.94;5010659;28;20096;-60
2023/06/26 10:13:46;;;;;;;5.13;1.60;;;;;;;25.40;47.34;101606.66;5014048;28;20024;-61
2023/06/26 10:16:12;;;;;;;3.22;1.05;;;;;;;25.57;47.89;101600.19;5011985;28;20535;-60
2023/06/26 10:18:40;;;;;;;2.92;0.85;;;;;;;25.78;48.07;101613.94;5019695;28;20017;-60
2023/06/26 10:21:06;;;;;;;2.72;0.68;;;;;;;25.88;46.46;101607.56;5009840;28;20196;-59
2023/06/26 10:23:34;;;;;;;3.35;0.85;;;;;;;25.95;46.78;101599.47;5009642;28;20022;-60
2023/06/26 10:26:01;;;;;;;2.25;0.70;;;;;;;25.90;45.88;101605.72;5010200;28;20038;-61
2023/06/26 10:28:29;;;;;;;2.13;0.80;;;;;;;25.73;45.68;101615.81;5009433;28;20057;-61
2023/06/26 10:30:55;;;;;;;3.08;0.60;;;;;;;25.70;45.93;101616.78;5009196;28;20032;-61
2023/06/26 10:33:22;;;;;;;2.38;0.88;;;;;;;25.74;45.47;101601.66;5009886;28;20130;-59
2023/06/26 10:35:47;;;;;;;2.88;0.93;;;;;;;25.82;44.77;101605.03;5009455;28;20432;-61
2023/06/26 10:38:13;;;;;;;2.30;0.80;;;;;;;25.97;45.50;101603.84;5007669;28;20026;-61
2023/06/26 10:40:46;;;;;;;2.35;0.60;;;;;;;26.05;43.88;101616.09;5008650;28;20061;-61
2023/06/26 10:43:16;;;;;;;1.75;0.80;;;;;;;26.04;41.23;101639.09;5007124;28;20464;-61
2023/06/26 10:45:46;;;;;;;2.30;0.70;;;;;;;26.01;40.95;101623.25;5007334;28;20088;-60
2023/06/26 10:48:14;;;;;;;1.52;0.93;;;;;;;26.10;41.58;101620.38;5006775;28;20437;-60
2023/06/26 10:50:40;;;;;;;2.67;0.63;;;;;;;26.09;40.66;101631.03;4994953;28;20551;-61
2023/06/26 10:53:34;;;;;;;2.15;0.93;;;;;;;25.87;40.41;101632.34;5008377;28;20029;-61
2023/06/26 10:56:04;;;;;;;2.25;0.75;;;;;;;25.89;41.19;101640.28;5000795;28;20029;-61
2023/06/26 10:58:33;;;;;;;2.47;0.70;;;;;;;25.81;40.85;101623.63;5008897;28;20057;-61
2023/06/26 11:01:14;;;;;;;4.43;0.90;;;;;;;25.80;42.33;101614.78;5009356;28;20455;-61
2023/06/26 11:03:42;;;;;;;3.30;0.75;;;;;;;25.65;41.49;101624.81;5008773;28;20385;-61
2023/06/26 11:06:20;;;;;;;1.27;0.52;;;;;;;25.61;41.33;101640.78;5008624;28;20367;-61
2023/06/26 11:08:53;;;;;;;1.30;0.80;;;;;;;25.54;40.72;101640.88;5009068;28;20478;-59
2023/06/26 11:11:20;;;;;;;3.28;0.98;;;;;;;25.44;41.05;101646.41;5008341;28;20025;-61
2023/06/26 11:13:47;;;;;;;1.52;0.65;;;;;;;25.58;43.95;101638.19;5008968;28;20041;-61
2023/06/26 11:16:14;;;;;;;2.90;0.98;;;;;;;25.73;42.70;101639.69;5008095;28;20028;-62
2023/06/26 11:18:40;;;;;;;1.75;0.90;;;;;;;25.84;42.45;101635.06;5008748;28;20018;-60